Time,TemperatureF,DewpointF,PressureIn,WindDirection,WindDirectionDegrees,WindSpeedMPH,WindSpeedGustMPH,Humidity,HourlyPrecipIn,Conditions,Clouds,dailyrainin,SoftwareType,DateUTC
2013-02-22 00:00:00,19.0,13.3,30.17,SW,224,5.0,0.0,78,0.00,BKN,BKN,0.00,WeatherDisplay:10.37,2013-02-22 05:00:00,
2013-02-22 00:10:00,18.9,13.1,30.17,SW,236,1.0,0.0,78,0.00,BKN,BKN,0.00,WeatherDisplay:10.37,2013-02-22 05:10:00,
2013-02-22 00:20:00,19.0,13.3,30.18,SW,218,1.0,0.0,78,0.00,BKN,BKN,0.00,WeatherDisplay:10.37,2013-02-22 05:20:00,
2013-02-22 00:30:00,19.0,13.6,30.21,South,187,2.0,0.0,79,0.00,BKN,BKN,0.00,WeatherDisplay:10.37,2013-02-22 05:30:00,
2013-02-22 00:40:00,19.0,13.6,30.20,SW,234,2.0,0.0,79,0.00,BKN,BKN,0.00,WeatherDisplay:10.37,2013-02-22 05:40:00,
2013-02-22 00:50:00,19.4,13.9,30.20,South,191,0.0,0.0,79,0.00,BKN,BKN,0.00,WeatherDisplay:10.37,2013-02-22 05:50:00,
2013-02-22 01:00:00,19.4,13.9,30.21,SW,217,5.0,0.0,79,0.00,BKN,BKN,0.00,WeatherDisplay:10.37,2013-02-22 06:00:00,
2013-02-22 01:10:00,19.8,14.0,30.21,WSW,253,2.0,0.0,78,0.00,BKN,BKN,0.00,WeatherDisplay:10.37,2013-02-22 06:10:00,
2013-02-22 01:20:00,19.8,14.3,30.23,SW,217,1.0,0.0,79,0.00,BKN,BKN,0.00,WeatherDisplay:10.37,2013-02-22 06:20:00,
2013-02-22 01:30:00,19.8,14.3,30.21,SW,227,2.0,0.0,79,0.00,BKN,BKN,0.00,WeatherDisplay:10.37,2013-02-22 06:30:00,
2013-02-22 01:40:00,19.9,14.5,30.20,SW,227,6.0,0.0,79,0.00,BKN,BKN,0.00,WeatherDisplay:10.37,2013-02-22 06:40:00,
2013-02-22 01:50:00,19.9,14.5,30.21,WSW,246,2.0,0.0,79,0.00,BKN,BKN,0.00,WeatherDisplay:10.37,2013-02-22 06:50:00,
2013-02-22 02:00:00,19.9,14.5,30.21,SW,236,3.0,0.0,79,0.00,BKN,BKN,0.00,WeatherDisplay:10.37,2013-02-22 07:00:00,
2013-02-22 02:10:00,19.9,14.4,30.21,SW,225,1.0,0.0,79,0.00,BKN,BKN,0.00,WeatherDisplay:10.37,2013-02-22 07:10:00,
2013-02-22 02:20:00,19.8,14.6,30.21,SW,216,0.0,0.0,80,0.00,BKN,BKN,0.00,WeatherDisplay:10.37,2013-02-22 07:20:00,
2013-02-22 02:30:00,19.6,14.4,30.20,South,186,0.0,0.0,80,0.00,BKN,BKN,0.00,WeatherDisplay:10.37,2013-02-22 07:30:00,
2013-02-22 02:40:00,19.4,14.2,30.20,SSW,210,0.0,0.0,80,0.00,BKN,BKN,0.00,WeatherDisplay:10.37,2013-02-22 07:40:00,
2013-02-22 02:50:00,19.4,14.2,30.22,South,170,0.0,0.0,80,0.00,BKN,BKN,0.00,WeatherDisplay:10.37,2013-02-22 07:50:00,
2013-02-22 03:00:00,19.4,14.5,30.22,SW,218,0.0,0.0,81,0.00,BKN,BKN,0.00,WeatherDisplay:10.37,2013-02-22 08:00:00,
2013-02-22 03:10:00,19.4,14.5,30.21,SW,229,0.0,0.0,81,0.00,BKN,BKN,0.00,WeatherDisplay:10.37,2013-02-22 08:10:00,
2013-02-22 03:20:00,19.4,14.2,30.22,SW,219,2.0,0.0,80,0.00,BKN,BKN,0.00,WeatherDisplay:10.37,2013-02-22 08:20:00,
2013-02-22 03:30:00,19.4,14.5,30.22,WSW,249,1.0,0.0,81,0.00,BKN,BKN,0.00,WeatherDisplay:10.37,2013-02-22 08:30:00,
2013-02-22 03:40:00,19.4,14.5,30.25,WSW,249,3.0,0.0,81,0.00,BKN,BKN,0.00,WeatherDisplay:10.37,2013-02-22 08:40:00,
2013-02-22 03:50:00,19.8,14.9,30.24,WSW,257,1.0,0.0,81,0.00,BKN,BKN,0.00,WeatherDisplay:10.37,2013-02-22 08:50:00,
2013-02-22 04:00:00,19.8,14.9,30.22,SW,228,3.0,0.0,81,0.00,BKN,BKN,0.00,WeatherDisplay:10.37,2013-02-22 09:00:00,
2013-02-22 04:10:00,19.9,14.8,30.24,WSW,246,1.0,0.0,80,0.00,BKN,BKN,0.00,WeatherDisplay:10.37,2013-02-22 09:10:00,
2013-02-22 04:20:00,20.0,14.9,30.23,WSW,254,3.0,0.0,80,0.00,BKN,BKN,0.00,WeatherDisplay:10.37,2013-02-22 09:20:00,
2013-02-22 04:30:00,20.1,15.2,30.23,SSW,210,1.0,0.0,81,0.00,BKN,BKN,0.00,WeatherDisplay:10.37,2013-02-22 09:30:00,
2013-02-22 04:40:00,19.9,15.0,30.23,WSW,249,2.0,0.0,81,0.00,BKN,BKN,0.00,WeatherDisplay:10.37,2013-02-22 09:40:00,
2013-02-22 04:50:00,19.9,15.0,30.23,SW,229,2.0,0.0,81,0.00,BKN,BKN,0.00,WeatherDisplay:10.37,2013-02-22 09:50:00,
2013-02-22 05:00:00,19.9,15.0,30.25,SW,231,1.0,0.0,81,0.00,BKN,BKN,0.00,WeatherDisplay:10.37,2013-02-22 10:00:00,
2013-02-22 05:10:00,19.8,14.9,30.25,WSW,240,1.0,0.0,81,0.00,BKN,BKN,0.00,WeatherDisplay:10.37,2013-02-22 10:10:00,
2013-02-22 05:20:00,19.4,14.5,30.23,WSW,255,0.0,0.0,81,0.00,BKN,BKN,0.00,WeatherDisplay:10.37,2013-02-22 10:20:00,
2013-02-22 05:30:00,19.3,14.7,30.23,West,262,0.0,0.0,82,0.00,BKN,BKN,0.00,WeatherDisplay:10.37,2013-02-22 10:30:00,
2013-02-22 05:40:00,18.9,14.0,30.25,WSW,242,1.0,0.0,81,0.00,BKN,BKN,0.00,WeatherDisplay:10.37,2013-02-22 10:40:00,
2013-02-22 05:50:00,18.2,13.3,30.27,South,173,0.0,0.0,81,0.00,BKN,BKN,0.00,WeatherDisplay:10.37,2013-02-22 10:50:00,
2013-02-22 06:00:00,17.6,12.8,30.28,SSE,155,2.0,0.0,81,0.00,BKN,BKN,0.00,WeatherDisplay:10.37,2013-02-22 11:00:00,
2013-02-22 06:10:00,17.6,12.8,30.30,SSE,154,0.0,0.0,81,0.00,BKN,BKN,0.00,WeatherDisplay:10.37,2013-02-22 11:10:00,
2013-02-22 06:20:00,17.3,12.7,30.30,SE,134,1.0,0.0,82,0.00,BKN,BKN,0.00,WeatherDisplay:10.37,2013-02-22 11:20:00,
2013-02-22 06:30:00,17.2,12.7,30.32,SE,145,3.0,0.0,82,0.00,BKN,BKN,0.00,WeatherDisplay:10.37,2013-02-22 11:30:00,
2013-02-22 06:40:00,17.1,12.5,30.32,SE,144,0.0,0.0,82,0.00,BKN,BKN,0.00,WeatherDisplay:10.37,2013-02-22 11:40:00,
2013-02-22 06:50:00,17.2,12.7,30.32,SSE,161,0.0,0.0,82,0.00,BKN,BKN,0.00,WeatherDisplay:10.37,2013-02-22 11:50:00,
2013-02-22 07:00:00,17.8,13.2,30.31,SSW,209,2.0,0.0,82,0.00,BKN,BKN,0.00,WeatherDisplay:10.37,2013-02-22 12:00:00,
2013-02-22 07:10:00,18.9,14.3,30.33,WSW,237,0.0,0.0,82,0.00,BKN,BKN,0.00,WeatherDisplay:10.37,2013-02-22 12:10:00,
2013-02-22 07:20:00,18.9,14.3,30.33,SW,217,1.0,0.0,82,0.00,BKN,BKN,0.00,WeatherDisplay:10.37,2013-02-22 12:20:00,
2013-02-22 07:30:00,19.5,14.9,30.33,South,181,2.0,0.0,82,0.00,BKN,BKN,0.00,WeatherDisplay:10.37,2013-02-22 12:30:00,
2013-02-22 07:40:00,20.3,15.7,30.32,South,185,2.0,0.0,82,0.00,BKN,BKN,0.00,WeatherDisplay:10.37,2013-02-22 12:40:00,
2013-02-22 07:50:00,20.8,16.2,30.33,South,183,0.0,0.0,82,0.00,BKN,BKN,0.00,WeatherDisplay:10.37,2013-02-22 12:50:00,
2013-02-22 08:00:00,21.5,16.9,30.35,SW,221,0.0,0.0,82,0.00,BKN,BKN,0.00,WeatherDisplay:10.37,2013-02-22 13:00:00,
2013-02-22 08:10:00,22.0,17.4,30.34,SW,227,0.0,0.0,82,0.00,BKN,BKN,0.00,WeatherDisplay:10.37,2013-02-22 13:10:00,
2013-02-22 08:20:00,22.5,17.9,30.34,WSW,247,6.0,0.0,82,0.00,BKN,BKN,0.00,WeatherDisplay:10.37,2013-02-22 13:20:00,
2013-02-22 08:30:00,23.5,18.0,30.33,West,270,5.0,0.0,79,0.00,BKN,BKN,0.00,WeatherDisplay:10.37,2013-02-22 13:30:00,
2013-02-22 08:40:00,24.3,18.1,30.32,WSW,254,7.0,0.0,77,0.00,BKN,BKN,0.00,WeatherDisplay:10.37,2013-02-22 13:40:00,
2013-02-22 08:50:00,24.8,18.9,30.32,WNW,284,2.0,0.0,78,0.00,BKN,BKN,0.00,WeatherDisplay:10.37,2013-02-22 13:50:00,
2013-02-22 09:00:00,25.3,18.8,30.32,WSW,258,5.0,0.0,76,0.00,BKN,BKN,0.00,WeatherDisplay:10.37,2013-02-22 14:00:00,
2013-02-22 09:10:00,26.2,20.0,30.32,WNW,291,3.0,0.0,77,0.00,BKN,BKN,0.00,WeatherDisplay:10.37,2013-02-22 14:10:00,
2013-02-22 09:20:00,26.6,20.4,30.32,West,269,1.0,0.0,77,0.00,BKN,BKN,0.00,WeatherDisplay:10.37,2013-02-22 14:20:00,
2013-02-22 09:30:00,27.5,20.6,30.32,WNW,286,6.0,0.0,75,0.00,BKN,BKN,0.00,WeatherDisplay:10.37,2013-02-22 14:30:00,
2013-02-22 09:40:00,28.0,20.5,30.32,WSW,250,3.0,0.0,73,0.00,BKN,BKN,0.00,WeatherDisplay:10.37,2013-02-22 14:40:00,
2013-02-22 09:50:00,28.1,18.9,30.32,WSW,251,8.0,0.0,68,0.00,BKN,BKN,0.00,WeatherDisplay:10.37,2013-02-22 14:50:00,
2013-02-22 10:00:00,28.6,20.0,30.32,West,261,5.0,0.0,70,0.00,BKN,BKN,0.00,WeatherDisplay:10.37,2013-02-22 15:00:00,
2013-02-22 10:10:00,29.1,20.2,30.32,West,277,3.0,0.0,69,0.00,BKN,BKN,0.00,WeatherDisplay:10.37,2013-02-22 15:10:00,
2013-02-22 10:20:00,29.3,18.6,30.32,West,269,7.0,0.0,64,0.00,BKN,BKN,0.00,WeatherDisplay:10.37,2013-02-22 15:20:00,
2013-02-22 10:30:00,29.7,20.4,30.33,NW,309,9.0,0.0,68,0.00,BKN,BKN,0.00,WeatherDisplay:10.37,2013-02-22 15:30:00,
2013-02-22 10:40:00,29.8,20.2,30.32,WNW,282,6.0,0.0,67,0.00,BKN,BKN,0.00,WeatherDisplay:10.37,2013-02-22 15:40:00,
2013-02-22 10:50:00,30.2,21.2,30.32,WNW,288,6.0,0.0,69,0.00,BKN,BKN,0.00,WeatherDisplay:10.37,2013-02-22 15:50:00,
2013-02-22 11:00:00,30.6,21.2,30.32,West,278,6.0,0.0,68,0.00,BKN,BKN,0.00,WeatherDisplay:10.37,2013-02-22 16:00:00,
2013-02-22 11:10:00,30.8,21.8,30.31,West,276,2.0,0.0,69,0.00,BKN,BKN,0.00,WeatherDisplay:10.37,2013-02-22 16:10:00,
2013-02-22 11:20:00,31.1,21.4,30.31,West,277,5.0,0.0,67,0.00,BKN,BKN,0.00,WeatherDisplay:10.37,2013-02-22 16:20:00,
2013-02-22 11:30:00,31.5,22.8,30.31,NW,317,5.0,0.0,70,0.00,BKN,BKN,0.00,WeatherDisplay:10.37,2013-02-22 16:30:00,
2013-02-22 11:40:00,31.6,22.2,30.30,NW,310,6.0,0.0,68,0.00,BKN,BKN,0.00,WeatherDisplay:10.37,2013-02-22 16:40:00,
2013-02-22 11:50:00,31.8,22.7,30.31,West,260,2.0,0.0,69,0.00,BKN,BKN,0.00,WeatherDisplay:10.37,2013-02-22 16:50:00,
2013-02-22 12:00:00,32.4,23.3,30.32,WNW,285,5.0,0.0,69,0.00,BKN,BKN,0.00,WeatherDisplay:10.37,2013-02-22 17:00:00,
2013-02-22 12:10:00,32.2,23.8,30.31,West,280,5.0,0.0,71,0.00,BKN,BKN,0.00,WeatherDisplay:10.37,2013-02-22 17:10:00,
2013-02-22 12:20:00,31.6,23.6,30.31,WNW,302,1.0,0.0,72,0.00,BKN,BKN,0.00,WeatherDisplay:10.37,2013-02-22 17:20:00,
2013-02-22 12:30:00,32.0,24.3,30.30,NE,39,0.0,0.0,73,0.00,BKN,BKN,0.00,WeatherDisplay:10.37,2013-02-22 17:30:00,
2013-02-22 12:40:00,32.4,23.3,30.30,WNW,283,6.0,0.0,69,0.00,BKN,BKN,0.00,WeatherDisplay:10.37,2013-02-22 17:40:00,
2013-02-22 12:50:00,32.4,22.3,30.30,West,263,6.0,0.0,66,0.00,BKN,BKN,0.00,WeatherDisplay:10.37,2013-02-22 17:50:00,
2013-02-22 13:00:00,32.4,23.7,30.30,West,279,3.0,0.0,70,0.00,BKN,BKN,0.00,WeatherDisplay:10.37,2013-02-22 18:00:00,
2013-02-22 13:10:00,32.4,21.9,30.30,WSW,237,3.0,0.0,65,0.00,BKN,BKN,0.00,WeatherDisplay:10.37,2013-02-22 18:10:00,
2013-02-22 13:20:00,32.8,23.4,30.30,SW,226,2.0,0.0,68,0.00,BKN,BKN,0.00,WeatherDisplay:10.37,2013-02-22 18:20:00,
2013-02-22 13:30:00,33.4,23.7,30.30,WSW,242,3.0,0.0,67,0.00,BKN,BKN,0.00,WeatherDisplay:10.37,2013-02-22 18:30:00,
2013-02-22 13:40:00,33.8,24.0,30.30,West,271,2.0,0.0,67,0.00,BKN,BKN,0.00,WeatherDisplay:10.37,2013-02-22 18:40:00,
2013-02-22 13:50:00,34.2,26.7,30.30,ENE,74,5.0,0.0,74,0.00,BKN,BKN,0.00,WeatherDisplay:10.37,2013-02-22 18:50:00,
2013-02-22 14:00:00,34.3,24.5,30.28,ESE,123,3.0,0.0,67,0.00,BKN,BKN,0.00,WeatherDisplay:10.37,2013-02-22 19:00:00,
2013-02-22 14:10:00,34.3,25.6,30.28,SSW,205,2.0,0.0,70,0.00,BKN,BKN,0.00,WeatherDisplay:10.37,2013-02-22 19:10:00,
2013-02-22 14:20:00,34.6,26.8,30.28,SSE,152,3.0,0.0,73,0.00,BKN,BKN,0.00,WeatherDisplay:10.37,2013-02-22 19:20:00,
2013-02-22 14:30:00,35.1,27.9,30.30,East,101,0.0,0.0,75,0.00,BKN,BKN,0.00,WeatherDisplay:10.37,2013-02-22 19:30:00,
2013-02-22 14:40:00,35.1,28.6,30.28,WNW,301,2.0,0.0,77,0.00,BKN,BKN,0.00,WeatherDisplay:10.37,2013-02-22 19:40:00,
2013-02-22 14:50:00,35.2,28.4,30.28,NW,315,0.0,0.0,76,0.00,BKN,BKN,0.00,WeatherDisplay:10.37,2013-02-22 19:50:00,
2013-02-22 15:00:00,35.3,29.1,30.30,SSW,201,0.0,0.0,78,0.00,BKN,BKN,0.00,WeatherDisplay:10.37,2013-02-22 20:00:00,
2013-02-22 15:10:00,35.2,28.4,30.28,North,354,2.0,0.0,76,0.00,BKN,BKN,0.00,WeatherDisplay:10.37,2013-02-22 20:10:00,
2013-02-22 15:20:00,35.2,29.1,30.28,SE,127,2.0,0.0,78,0.00,BKN,BKN,0.00,WeatherDisplay:10.37,2013-02-22 20:20:00,
2013-02-22 15:30:00,35.2,28.1,30.30,ESE,116,5.0,0.0,75,0.00,BKN,BKN,0.00,WeatherDisplay:10.37,2013-02-22 20:30:00,
2013-02-22 15:40:00,35.0,28.9,30.30,ESE,111,1.0,0.0,78,0.00,BKN,BKN,0.00,WeatherDisplay:10.37,2013-02-22 20:40:00,
2013-02-22 15:50:00,34.3,28.5,30.28,North,352,0.0,0.0,79,0.00,BKN,BKN,0.00,WeatherDisplay:10.37,2013-02-22 20:50:00,
2013-02-22 16:00:00,34.1,28.3,30.28,NE,48,0.0,0.0,79,0.00,BKN,BKN,0.00,WeatherDisplay:10.37,2013-02-22 21:00:00,
2013-02-22 16:10:00,33.8,28.6,30.27,ENE,60,0.0,0.0,81,0.00,BKN,BKN,0.00,WeatherDisplay:10.37,2013-02-22 21:10:00,
2013-02-22 16:20:00,33.7,28.5,30.27,ENE,60,0.0,0.0,81,0.00,BKN,BKN,0.00,WeatherDisplay:10.37,2013-02-22 21:20:00,
2013-02-22 16:30:00,33.4,27.9,30.27,East,80,1.0,0.0,80,0.00,BKN,BKN,0.00,WeatherDisplay:10.37,2013-02-22 21:30:00,
2013-02-22 16:40:00,33.4,27.9,30.26,East,90,2.0,0.0,80,0.00,BKN,BKN,0.00,WeatherDisplay:10.37,2013-02-22 21:40:00,
2013-02-22 16:50:00,33.1,27.9,30.26,ESE,106,2.0,0.0,81,0.00,BKN,BKN,0.00,WeatherDisplay:10.37,2013-02-22 21:50:00,
2013-02-22 17:00:00,32.6,27.5,30.28,ENE,60,0.0,0.0,81,0.00,BKN,BKN,0.00,WeatherDisplay:10.37,2013-02-22 22:00:00,
2013-02-22 17:10:00,32.4,27.2,30.30,East,81,0.0,0.0,81,0.00,BKN,BKN,0.00,WeatherDisplay:10.37,2013-02-22 22:10:00,
2013-02-22 17:20:00,31.9,27.0,30.28,East,82,0.0,0.0,82,0.00,BKN,BKN,0.00,WeatherDisplay:10.37,2013-02-22 22:20:00,
2013-02-22 17:30:00,31.5,26.6,30.28,East,82,0.0,0.0,82,0.00,BKN,BKN,0.00,WeatherDisplay:10.37,2013-02-22 22:30:00,
2013-02-22 17:40:00,31.1,26.2,30.28,East,82,0.0,0.0,82,0.00,BKN,BKN,0.00,WeatherDisplay:10.37,2013-02-22 22:40:00,
2013-02-22 17:50:00,30.7,25.9,30.28,East,82,0.0,0.0,82,0.00,BKN,BKN,0.00,WeatherDisplay:10.37,2013-02-22 22:50:00,
2013-02-22 18:00:00,30.4,25.5,30.30,East,82,0.0,0.0,82,0.00,BKN,BKN,0.00,WeatherDisplay:10.37,2013-02-22 23:00:00,
2013-02-22 18:10:00,29.8,25.0,30.30,East,82,0.0,0.0,82,0.00,BKN,BKN,0.00,WeatherDisplay:10.37,2013-02-22 23:10:00,
2013-02-22 18:20:00,29.7,24.8,30.30,East,82,0.0,0.0,82,0.00,BKN,BKN,0.00,WeatherDisplay:10.37,2013-02-22 23:20:00,
2013-02-22 18:30:00,29.5,25.0,30.28,East,80,0.0,0.0,83,0.00,BKN,BKN,0.00,WeatherDisplay:10.37,2013-02-22 23:30:00,
2013-02-22 18:40:00,29.7,25.1,30.28,East,95,2.0,0.0,83,0.00,BKN,BKN,0.00,WeatherDisplay:10.37,2013-02-22 23:40:00,
2013-02-22 18:50:00,29.3,24.5,30.30,ESE,105,1.0,0.0,82,0.00,BKN,BKN,0.00,WeatherDisplay:10.37,2013-02-22 23:50:00,
2013-02-22 19:00:00,29.1,24.6,30.30,East,94,0.0,0.0,83,0.00,BKN,BKN,0.00,WeatherDisplay:10.37,2013-02-23 00:00:00,
2013-02-22 19:10:00,29.3,25.1,30.30,ESE,105,0.0,0.0,84,0.00,BKN,BKN,0.00,WeatherDisplay:10.37,2013-02-23 00:10:00,
2013-02-22 19:20:00,29.3,25.1,30.30,East,100,1.0,0.0,84,0.00,BKN,BKN,0.00,WeatherDisplay:10.37,2013-02-23 00:20:00,
2013-02-22 19:30:00,29.3,25.1,30.30,East,89,0.0,0.0,84,0.00,BKN,BKN,0.00,WeatherDisplay:10.37,2013-02-23 00:30:00,
2013-02-22 19:40:00,29.3,25.1,30.30,NNE,24,1.0,0.0,84,0.00,BKN,BKN,0.00,WeatherDisplay:10.37,2013-02-23 00:40:00,
2013-02-22 19:50:00,29.3,25.1,30.30,NE,53,1.0,0.0,84,0.00,BKN,BKN,0.00,WeatherDisplay:10.37,2013-02-23 00:50:00,
2013-02-22 20:00:00,29.3,25.1,30.30,East,97,1.0,0.0,84,0.00,BKN,BKN,0.00,WeatherDisplay:10.37,2013-02-23 01:00:00,
2013-02-22 20:10:00,29.3,25.1,30.30,ENE,63,0.0,0.0,84,0.00,BKN,BKN,0.00,WeatherDisplay:10.37,2013-02-23 01:10:00,
2013-02-22 20:20:00,29.2,25.2,30.30,ENE,68,1.0,0.0,85,0.00,BKN,BKN,0.00,WeatherDisplay:10.37,2013-02-23 01:20:00,
2013-02-22 20:30:00,29.1,25.2,30.30,ENE,60,1.0,0.0,85,0.00,BKN,BKN,0.00,WeatherDisplay:10.37,2013-02-23 01:30:00,
2013-02-22 20:40:00,29.3,25.4,30.30,ENE,60,1.0,0.0,85,0.00,BKN,BKN,0.00,WeatherDisplay:10.37,2013-02-23 01:40:00,
2013-02-22 20:50:00,29.1,25.2,30.30,ENE,65,1.0,0.0,85,0.00,BKN,BKN,0.00,WeatherDisplay:10.37,2013-02-23 01:50:00,
2013-02-22 21:00:00,29.1,25.2,30.30,NE,54,0.0,0.0,85,0.00,BKN,BKN,0.00,WeatherDisplay:10.37,2013-02-23 02:00:00,
2013-02-22 21:10:00,28.9,25.0,30.30,East,84,2.0,0.0,85,0.00,BKN,BKN,0.00,WeatherDisplay:10.37,2013-02-23 02:10:00,
2013-02-22 21:20:00,28.9,25.0,30.30,East,92,2.0,0.0,85,0.00,BKN,BKN,0.00,WeatherDisplay:10.37,2013-02-23 02:20:00,
2013-02-22 21:30:00,28.9,24.9,30.30,ENE,61,2.0,0.0,85,0.00,BKN,BKN,0.00,WeatherDisplay:10.37,2013-02-23 02:30:00,
2013-02-22 21:40:00,28.8,24.8,30.30,East,80,1.0,0.0,85,0.00,BKN,BKN,0.00,WeatherDisplay:10.37,2013-02-23 02:40:00,
2013-02-22 21:50:00,28.8,24.8,30.28,East,88,2.0,0.0,85,0.00,BKN,BKN,0.00,WeatherDisplay:10.37,2013-02-23 02:50:00,
2013-02-22 22:00:00,28.8,24.8,30.28,ESE,105,2.0,0.0,85,0.00,BKN,BKN,0.00,WeatherDisplay:10.37,2013-02-23 03:00:00,
2013-02-22 22:10:00,28.9,25.3,30.28,East,93,3.0,0.0,86,0.00,BKN,BKN,0.00,WeatherDisplay:10.37,2013-02-23 03:10:00,
2013-02-22 22:20:00,28.9,25.0,30.28,East,98,5.0,0.0,85,0.00,BKN,BKN,0.00,WeatherDisplay:10.37,2013-02-23 03:20:00,
2013-02-22 22:30:00,28.9,25.3,30.28,East,85,0.0,0.0,86,0.00,BKN,BKN,0.00,WeatherDisplay:10.37,2013-02-23 03:30:00,
2013-02-22 22:40:00,28.9,25.3,30.28,East,97,0.0,0.0,86,0.00,BKN,BKN,0.00,WeatherDisplay:10.37,2013-02-23 03:40:00,
2013-02-22 22:50:00,28.9,25.3,30.28,ESE,105,2.0,0.0,86,0.00,BKN,BKN,0.00,WeatherDisplay:10.37,2013-02-23 03:50:00,
2013-02-22 23:00:00,28.9,25.0,30.28,ESE,108,2.0,0.0,85,0.00,BKN,BKN,0.00,WeatherDisplay:10.37,2013-02-23 04:00:00,
2013-02-22 23:10:00,28.9,25.2,30.28,ESE,113,6.0,0.0,86,0.00,BKN,BKN,0.00,WeatherDisplay:10.37,2013-02-23 04:10:00,
2013-02-22 23:20:00,28.8,25.1,30.27,ESE,116,2.0,0.0,86,0.00,BKN,BKN,0.00,WeatherDisplay:10.37,2013-02-23 04:20:00,
2013-02-22 23:30:00,28.8,25.1,30.28,ESE,105,0.0,0.0,86,0.00,BKN,BKN,0.00,WeatherDisplay:10.37,2013-02-23 04:30:00,
2013-02-22 23:40:00,28.8,25.1,30.27,ESE,105,0.0,0.0,86,0.00,BKN,BKN,0.00,WeatherDisplay:10.37,2013-02-23 04:40:00,
2013-02-22 23:50:00,28.8,25.1,30.27,ESE,105,2.0,0.0,86,0.00,BKN,BKN,0.00,WeatherDisplay:10.37,2013-02-23 04:50:00,